Time;durP1;ratioP1;P1;durP2;ratioP2;P2;SDS_P1;SDS_P2;PMS_P1;PMS_P2;Temp;Humidity;BMP_temperature;BMP_pressure;BME280_temperature;BME280_humidity;BME280_pressure;Samples;Min_cycle;Max_cycle;Signal;HPM_P1;HPM_P2
2023/01/24 00:01:42;;;;;;;;;;;;;;;0.96;100.00;100307.59;105302;1256;99194;-67
2023/01/24 00:04:09;;;;;;;;;;;;;;;0.98;100.00;100306.90;105286;1257;97947;-67
2023/01/24 00:06:35;;;;;;;;;;;;;;;1.04;100.00;100310.04;105409;1256;97955;-67
2023/01/24 00:09:03;;;;;;;;;;;;;;;1.06;100.00;100306.14;105284;1256;97978;-67
2023/01/24 00:11:29;;;;;;;;;;;;;;;1.05;100.00;100305.97;105315;1256;99201;-67
2023/01/24 00:13:57;;;;;;;;;;;;;;;1.02;100.00;100305.73;105317;1257;98604;-67
2023/01/24 00:16:24;;;;;;;;;;;;;;;1.00;100.00;100305.65;105375;1256;97998;-67
2023/01/24 00:18:51;;;;;;;;;;;;;;;0.95;100.00;100305.80;105259;1256;108729;-67
2023/01/24 00:21:20;;;;;;;;;;;;;;;0.91;100.00;100305.90;105223;1256;98845;-68
2023/01/24 00:23:49;;;;;;;;;;;;;;;0.89;100.00;100306.92;105080;1254;99089;-67
2023/01/24 00:26:17;;;;;;;;;;;;;;;0.90;100.00;100309.39;105265;1270;111456;-68
2023/01/24 00:28:45;;;;;;;;;;;;;;;0.90;100.00;100307.98;105256;1257;99035;-71
2023/01/24 00:31:12;;;;;;;;;;;;;;;0.91;100.00;100310.52;105236;1255;108578;-68
2023/01/24 00:33:39;;;;;;;;;;;;;;;0.93;100.00;100310.21;105317;1257;99105;-68
2023/01/24 00:36:07;;;;;;;;;;;;;;;0.95;100.00;100313.63;105330;1257;97928;-68
2023/01/24 00:38:34;;;;;;;;;;;;;;;0.93;100.00;100312.34;105350;1256;98010;-68
2023/01/24 00:41:01;;;;;;;;;;;;;;;0.94;100.00;100312.09;105263;1257;98836;-68
2023/01/24 00:43:28;;;;;;;;;;;;;;;0.93;100.00;100315.06;105262;1256;97889;-68
2023/01/24 00:45:56;;;;;;;;;;;;;;;0.93;100.00;100317.02;105233;1254;98823;-68
2023/01/24 00:48:23;;;;;;;;;;;;;;;0.92;100.00;100314.33;105242;1256;97911;-68
2023/01/24 00:50:50;;;;;;;;;;;;;;;0.92;100.00;100315.74;105346;1257;97902;-68
2023/01/24 00:53:19;;;;;;;;;;;;;;;0.94;100.00;100318.74;105319;1257;97960;-68
2023/01/24 00:55:47;;;;;;;;;;;;;;;0.93;100.00;100317.95;105304;1267;107576;-68
2023/01/24 00:58:14;;;;;;;;;;;;;;;0.92;100.00;100317.32;105312;1254;97921;-68
2023/01/24 01:00:41;;;;;;;;;;;;;;;0.94;100.00;100317.98;105313;1256;97899;-68
2023/01/24 01:03:11;;;;;;;;;;;;;;;0.97;100.00;100323.41;105218;1254;99088;-68
2023/01/24 01:05:38;;;;;;;;;;;;;;;0.98;100.00;100327.38;105318;1254;99192;-68
2023/01/24 01:08:04;;;;;;;;;;;;;;;0.99;100.00;100332.28;105281;1257;97924;-68
2023/01/24 01:10:32;;;;;;;;;;;;;;;1.00;100.00;100334.60;105287;1268;97887;-68
2023/01/24 01:12:59;;;;;;;;;;;;;;;1.01;100.00;100340.45;105254;1254;97903;-68
2023/01/24 01:15:26;;;;;;;;;;;;;;;1.03;100.00;100336.23;105291;1256;97994;-68
2023/01/24 01:17:53;;;;;;;;;;;;;;;1.05;100.00;100335.42;105310;1260;97912;-68
2023/01/24 01:20:20;;;;;;;;;;;;;;;1.07;100.00;100335.59;105251;1257;98788;-68
2023/01/24 01:22:50;;;;;;;;;;;;;;;1.05;100.00;100335.30;105311;1254;97902;-68
2023/01/24 01:25:17;;;;;;;;;;;;;;;1.01;100.00;100335.46;105279;1256;113508;-68
2023/01/24 01:27:45;;;;;;;;;;;;;;;0.97;100.00;100338.12;105287;1269;99341;-68
2023/01/24 01:30:12;;;;;;;;;;;;;;;0.95;100.00;100341.37;105249;1254;97983;-68
2023/01/24 01:32:38;;;;;;;;;;;;;;;0.94;100.00;100337.42;105303;1264;98049;-68
2023/01/24 01:35:06;;;;;;;;;;;;;;;0.94;100.00;100335.64;105359;1257;99142;-68
2023/01/24 01:37:32;;;;;;;;;;;;;;;0.94;100.00;100331.69;105138;1266;97993;-68
2023/01/24 01:39:59;;;;;;;;;;;;;;;0.95;100.00;100336.01;105116;1256;97898;-68
2023/01/24 01:42:36;;;;;;;;;;;;;;;0.96;100.00;100338.23;105097;1267;99207;-68
2023/01/24 01:45:22;;;;;;;;;;;;;;;0.96;100.00;100340.77;105227;1256;99227;-68
2023/01/24 01:47:49;;;;;;;;;;;;;;;0.98;100.00;100339.73;105252;1256;112269;-69
2023/01/24 01:50:26;;;;;;;;;;;;;;;0.99;100.00;100338.54;105099;1258;99660;-69
2023/01/24 01:52:53;;;;;;;;;;;;;;;1.00;100.00;100337.91;105283;1255;109721;-69
2023/01/24 01:55:21;;;;;;;;;;;;;;;1.02;100.00;100336.09;105189;1257;97891;-67
2023/01/24 01:57:50;;;;;;;;;;;;;;;1.03;100.00;100335.97;105174;1256;99118;-67
2023/01/24 02:00:26;;;;;;;;;;;;;;;1.03;100.00;100334.51;105207;1256;112319;-66
2023/01/24 02:05:53;;;;;;;;;;;;;;;1.01;100.00;100339.73;105132;1267;108282;-66
2023/01/24 02:08:22;;;;;;;;;;;;;;;1.01;100.00;100333.69;105293;1254;97980;-66
2023/01/24 02:13:43;;;;;;;;;;;;;;;1.04;100.00;100339.77;104986;1256;112176;-66
2023/01/24 02:16:14;;;;;;;;;;;;;;;1.03;100.00;100340.53;105036;1256;99201;-66
2023/01/24 02:18:42;;;;;;;;;;;;;;;1.04;100.00;100340.95;105058;1264;107637;-66
2023/01/24 02:21:11;;;;;;;;;;;;;;;1.05;100.00;100335.91;105089;1254;97975;-66
2023/01/24 02:23:57;;;;;;;;;;;;;;;1.07;100.00;100335.91;105035;1256;98807;-67
2023/01/24 02:26:27;;;;;;;;;;;;;;;1.07;100.00;100332.27;105209;1267;112108;-66
2023/01/24 02:29:00;;;;;;;;;;;;;;;1.08;100.00;100336.61;105261;1257;99893;-66
2023/01/24 02:31:27;;;;;;;;;;;;;;;1.08;100.00;100338.40;105283;1257;108562;-66
2023/01/24 02:33:54;;;;;;;;;;;;;;;1.10;100.00;100341.02;105149;1275;97898;-68
2023/01/24 02:36:26;;;;;;;;;;;;;;;1.12;100.00;100340.44;105210;1255;97869;-68
2023/01/24 02:39:04;;;;;;;;;;;;;;;1.10;100.00;100336.11;105204;1256;112082;-68
2023/01/24 02:41:36;;;;;;;;;;;;;;;1.12;100.00;100329.68;105243;1254;99348;-68
2023/01/24 02:44:07;;;;;;;;;;;;;;;1.15;100.00;100322.13;105142;1257;109665;-68
2023/01/24 02:46:37;;;;;;;;;;;;;;;1.13;100.00;100322.98;105195;1257;97914;-68
2023/01/24 02:49:08;;;;;;;;;;;;;;;1.13;100.00;100325.84;105252;1266;97897;-68
2023/01/24 02:54:20;;;;;;;;;;;;;;;1.11;100.00;100323.79;105052;1266;99191;-68
2023/01/24 02:59:33;;;;;;;;;;;;;;;1.13;100.00;100327.31;104982;1268;98014;-68
2023/01/24 03:01:59;;;;;;;;;;;;;;;1.12;100.00;100329.23;105081;1257;98823;-70
2023/01/24 03:04:26;;;;;;;;;;;;;;;1.12;100.00;100330.35;105092;1260;100525;-69
2023/01/24 03:06:53;;;;;;;;;;;;;;;1.11;100.00;100333.29;105006;1256;97916;-68
2023/01/24 03:09:33;;;;;;;;;;;;;;;1.11;100.00;100334.75;105189;1257;97896;-69
2023/01/24 03:36:55;;;;;;;;;;;;;;;1.20;100.00;100350.36;105244;1267;108478;-68
2023/01/24 03:42:08;;;;;;;;;;;;;;;1.22;100.00;100347.54;105293;1257;97912;-69
2023/01/24 03:44:34;;;;;;;;;;;;;;;1.22;100.00;100342.92;105235;1266;98842;-68
2023/01/24 03:47:01;;;;;;;;;;;;;;;1.22;100.00;100343.09;105251;1267;98639;-68
2023/01/24 03:52:28;;;;;;;;;;;;;;;1.22;100.00;100344.13;105188;1258;97893;-68
2023/01/24 03:54:59;;;;;;;;;;;;;;;1.26;100.00;100344.00;105252;1255;97915;-68
2023/01/24 03:57:27;;;;;;;;;;;;;;;1.25;100.00;100340.10;105323;1257;111752;-68
2023/01/24 03:59:54;;;;;;;;;;;;;;;1.25;100.00;100342.17;105333;1264;99308;-69
2023/01/24 04:02:21;;;;;;;;;;;;;;;1.23;100.00;100343.42;105248;1256;97964;-69
2023/01/24 04:07:33;;;;;;;;;;;;;;;1.26;100.00;100346.23;105309;1264;99099;-69
2023/01/24 04:10:00;;;;;;;;;;;;;;;1.28;100.00;100342.63;105323;1257;97916;-69
2023/01/24 04:12:27;;;;;;;;;;;;;;;1.31;100.00;100338.14;105251;1257;97937;-68
2023/01/24 04:14:54;;;;;;;;;;;;;;;1.34;100.00;100337.88;105165;1266;97985;-68
2023/01/24 04:17:21;;;;;;;;;;;;;;;1.38;100.00;100340.70;105262;1256;99262;-68
2023/01/24 04:19:47;;;;;;;;;;;;;;;1.41;100.00;100343.02;105391;1266;97984;-68
2023/01/24 04:22:15;;;;;;;;;;;;;;;1.43;100.00;100343.02;105309;1254;98938;-68
2023/01/24 04:24:42;;;;;;;;;;;;;;;1.39;100.00;100343.31;105334;1266;108643;-68
2023/01/24 04:27:10;;;;;;;;;;;;;;;1.35;100.00;100342.41;105308;1257;97908;-68
2023/01/24 04:29:37;;;;;;;;;;;;;;;1.30;100.00;100340.71;105188;1257;97902;-68
2023/01/24 04:32:04;;;;;;;;;;;;;;;1.26;100.00;100339.89;105232;1256;97984;-72
2023/01/24 04:34:31;;;;;;;;;;;;;;;1.22;100.00;100336.98;105209;1265;97992;-74
2023/01/24 04:36:58;;;;;;;;;;;;;;;1.19;100.00;100343.52;105360;1257;98504;-70
2023/01/24 04:39:25;;;;;;;;;;;;;;;1.19;100.00;100344.96;105363;1258;99220;-70
2023/01/24 04:41:51;;;;;;;;;;;;;;;1.19;100.00;100341.14;105213;1267;223988;-71
2023/01/24 04:44:18;;;;;;;;;;;;;;;1.19;100.00;100345.25;105438;1265;97908;-70
2023/01/24 04:46:45;;;;;;;;;;;;;;;1.21;100.00;100346.42;105379;1256;108674;-68
2023/01/24 04:49:12;;;;;;;;;;;;;;;1.23;100.00;100352.81;105252;1264;97983;-68
2023/01/24 04:51:42;;;;;;;;;;;;;;;1.23;100.00;100350.48;105283;1266;97905;-68
2023/01/24 04:54:10;;;;;;;;;;;;;;;1.23;100.00;100347.59;105272;1267;112315;-68
2023/01/24 04:56:37;;;;;;;;;;;;;;;1.21;100.00;100346.04;105297;1260;99206;-68
2023/01/24 04:59:04;;;;;;;;;;;;;;;1.22;100.00;100345.17;105298;1267;97879;-69
2023/01/24 05:01:31;;;;;;;;;;;;;;;1.23;100.00;100340.55;105280;1266;99217;-69
2023/01/24 05:03:59;;;;;;;;;;;;;;;1.23;100.00;100340.98;105325;1258;97892;-69
2023/01/24 05:06:26;;;;;;;;;;;;;;;1.24;100.00;100341.47;105281;1267;98043;-69
2023/01/24 05:08:54;;;;;;;;;;;;;;;1.26;100.00;100341.09;105294;1266;97886;-69
2023/01/24 05:11:21;;;;;;;;;;;;;;;1.27;100.00;100345.33;105266;1257;98802;-69
2023/01/24 05:13:48;;;;;;;;;;;;;;;1.25;100.00;100343.20;105247;1256;97906;-69
2023/01/24 05:16:15;;;;;;;;;;;;;;;1.25;100.00;100342.34;105336;1266;97964;-68
2023/01/24 05:18:42;;;;;;;;;;;;;;;1.23;100.00;100344.55;105302;1258;97880;-69
2023/01/24 05:21:14;;;;;;;;;;;;;;;1.21;100.00;100341.89;105409;1267;97973;-69
2023/01/24 05:23:41;;;;;;;;;;;;;;;1.23;100.00;100341.41;105390;1257;108638;-69
2023/01/24 05:26:08;;;;;;;;;;;;;;;1.22;100.00;100338.36;105310;1256;99209;-69
2023/01/24 05:28:35;;;;;;;;;;;;;;;1.21;100.00;100340.44;105381;1257;98036;-69
2023/01/24 05:31:03;;;;;;;;;;;;;;;1.20;100.00;100337.80;105372;1257;98649;-69
2023/01/24 05:33:30;;;;;;;;;;;;;;;1.20;100.00;100340.94;105419;1257;97908;-69
2023/01/24 05:35:58;;;;;;;;;;;;;;;1.19;100.00;100343.06;105341;1257;99228;-69
2023/01/24 05:38:25;;;;;;;;;;;;;;;1.21;100.00;100347.13;105368;1266;97915;-69
2023/01/24 05:40:51;;;;;;;;;;;;;;;1.22;100.00;100347.23;105376;1257;97892;-69
2023/01/24 05:43:18;;;;;;;;;;;;;;;1.23;100.00;100349.83;105389;1257;97905;-69
2023/01/24 05:45:45;;;;;;;;;;;;;;;1.23;100.00;100343.34;105336;1257;99194;-69
2023/01/24 05:48:12;;;;;;;;;;;;;;;1.25;100.00;100344.84;105380;1257;97918;-69
2023/01/24 05:50:39;;;;;;;;;;;;;;;1.26;100.00;100347.77;105349;1267;97921;-69
2023/01/24 05:53:06;;;;;;;;;;;;;;;1.27;100.00;100351.27;105171;1261;97883;-69
2023/01/24 05:55:32;;;;;;;;;;;;;;;1.30;100.00;100351.73;105336;1268;99105;-70
2023/01/24 05:58:00;;;;;;;;;;;;;;;1.30;100.00;100352.64;105293;1257;97899;-73
2023/01/24 06:00:26;;;;;;;;;;;;;;;1.26;100.00;100353.23;105413;1266;97979;-70
2023/01/24 06:02:54;;;;;;;;;;;;;;;1.22;100.00;100352.60;105405;1254;97866;-70
2023/01/24 06:05:21;;;;;;;;;;;;;;;1.20;100.00;100356.89;105400;1266;98778;-70
2023/01/24 06:07:48;;;;;;;;;;;;;;;1.18;100.00;100357.08;105351;1257;97923;-70
2023/01/24 06:10:15;;;;;;;;;;;;;;;1.18;100.00;100358.77;105337;1266;97959;-70
2023/01/24 06:12:42;;;;;;;;;;;;;;;1.19;100.00;100361.67;105435;1257;97914;-70
2023/01/24 06:15:09;;;;;;;;;;;;;;;1.19;100.00;100364.57;105277;1257;109770;-70
2023/01/24 06:17:36;;;;;;;;;;;;;;;1.21;100.00;100367.52;105364;1266;97926;-70
2023/01/24 06:20:03;;;;;;;;;;;;;;;1.21;100.00;100370.94;105365;1271;98004;-70
2023/01/24 06:22:44;;;;;;;;;;;;;;;1.21;100.00;100375.04;105370;1257;99070;-71
2023/01/24 06:25:20;;;;;;;;;;;;;;;1.21;100.00;100377.08;105391;1264;97982;-70
2023/01/24 06:27:48;;;;;;;;;;;;;;;1.21;100.00;100382.59;105313;1257;111705;-70
2023/01/24 06:30:16;;;;;;;;;;;;;;;1.21;100.00;100389.08;105354;1257;99342;-70
2023/01/24 06:32:55;;;;;;;;;;;;;;;1.21;100.00;100390.54;105377;1266;109031;-70
2023/01/24 06:35:28;;;;;;;;;;;;;;;1.20;100.00;100395.06;105360;1266;97882;-70
2023/01/24 06:37:57;;;;;;;;;;;;;;;1.20;100.00;100395.04;105361;1266;97895;-70
2023/01/24 06:40:24;;;;;;;;;;;;;;;1.22;100.00;100397.60;105364;1260;112213;-70
2023/01/24 06:42:52;;;;;;;;;;;;;;;1.22;100.00;100401.72;105363;1266;97979;-70
2023/01/24 06:45:20;;;;;;;;;;;;;;;1.23;100.00;100402.75;105292;1258;97982;-70
2023/01/24 06:47:47;;;;;;;;;;;;;;;1.23;100.00;100401.00;105414;1257;97979;-70
2023/01/24 06:50:15;;;;;;;;;;;;;;;1.24;100.00;100399.80;105402;1266;97912;-70
2023/01/24 06:52:44;;;;;;;;;;;;;;;1.25;100.00;100403.31;105416;1257;99102;-70
2023/01/24 06:55:11;;;;;;;;;;;;;;;1.25;100.00;100402.38;105393;1257;99087;-70
2023/01/24 06:57:37;;;;;;;;;;;;;;;1.24;100.00;100407.66;105340;1257;97902;-70
2023/01/24 07:00:05;;;;;;;;;;;;;;;1.22;100.00;100412.57;105340;1257;97988;-70
2023/01/24 07:02:32;;;;;;;;;;;;;;;1.23;100.00;100418.77;105133;1260;98010;-70
2023/01/24 07:04:58;;;;;;;;;;;;;;;1.27;100.00;100417.55;105194;1266;97982;-69
2023/01/24 07:07:25;;;;;;;;;;;;;;;1.27;100.00;100422.61;105364;1266;98033;-69
2023/01/24 07:09:52;;;;;;;;;;;;;;;1.24;100.00;100421.16;105357;1257;97993;-69
2023/01/24 07:12:18;;;;;;;;;;;;;;;1.24;100.00;100426.19;105394;1275;98745;-69
2023/01/24 07:14:45;;;;;;;;;;;;;;;1.24;100.00;100430.64;105253;1264;99220;-69
2023/01/24 07:17:12;;;;;;;;;;;;;;;1.22;100.00;100423.73;105358;1257;97919;-70
2023/01/24 07:19:39;;;;;;;;;;;;;;;1.22;100.00;100428.77;105168;1266;97953;-70
2023/01/24 07:22:10;;;;;;;;;;;;;;;1.22;100.00;100431.52;105250;1256;97907;-69
2023/01/24 07:24:37;;;;;;;;;;;;;;;1.23;100.00;100429.85;105294;1257;97903;-69
2023/01/24 07:27:04;;;;;;;;;;;;;;;1.26;100.00;100432.75;105143;1268;97895;-69
2023/01/24 07:29:32;;;;;;;;;;;;;;;1.28;100.00;100430.34;105278;1264;99257;-69
2023/01/24 07:31:59;;;;;;;;;;;;;;;1.30;100.00;100428.98;104937;1266;98007;-69
2023/01/24 07:34:26;;;;;;;;;;;;;;;1.31;100.00;100433.64;104985;1254;98798;-70
2023/01/24 07:36:53;;;;;;;;;;;;;;;1.35;100.00;100433.13;105280;1267;97883;-69
2023/01/24 07:39:21;;;;;;;;;;;;;;;1.36;100.00;100436.95;105232;1267;97988;-69
2023/01/24 07:41:48;;;;;;;;;;;;;;;1.35;100.00;100437.08;105211;1257;97928;-69
2023/01/24 07:44:15;;;;;;;;;;;;;;;1.36;100.00;100438.52;104999;1257;97966;-70
2023/01/24 07:46:42;;;;;;;;;;;;;;;1.38;100.00;100440.83;105032;1267;98001;-69
2023/01/24 07:49:09;;;;;;;;;;;;;;;1.40;100.00;100440.43;105083;1266;97935;-69
2023/01/24 07:51:36;;;;;;;;;;;;;;;1.41;100.00;100439.40;105244;1268;97931;-69
2023/01/24 07:54:03;;;;;;;;;;;;;;;1.43;100.00;100436.29;105034;1267;108691;-69
2023/01/24 07:56:29;;;;;;;;;;;;;;;1.45;100.00;100431.88;105121;1267;98043;-69
2023/01/24 07:58:57;;;;;;;;;;;;;;;1.46;100.00;100435.40;105012;1258;97931;-69
2023/01/24 08:01:24;;;;;;;;;;;;;;;1.49;99.94;100431.16;105340;1266;99242;-70
2023/01/24 08:03:55;;;;;;;;;;;;;;;1.50;99.93;100431.71;105220;1258;97982;-70
2023/01/24 08:06:22;;;;;;;;;;;;;;;1.50;99.78;100434.86;105104;1254;108410;-70
2023/01/24 08:08:49;;;;;;;;;;;;;;;1.52;99.85;100437.08;105170;1266;97939;-69
2023/01/24 08:11:17;;;;;;;;;;;;;;;1.53;99.60;100433.33;105314;1264;98104;-69
2023/01/24 08:13:44;;;;;;;;;;;;;;;1.56;99.59;100436.73;105376;1267;97969;-70
2023/01/24 08:16:12;;;;;;;;;;;;;;;1.58;99.18;100440.39;105263;1264;99079;-70
2023/01/24 08:18:40;;;;;;;;;;;;;;;1.58;99.38;100436.62;105199;1257;97927;-69
2023/01/24 08:21:07;;;;;;;;;;;;;;;1.58;99.22;100439.68;105244;1258;98407;-70
2023/01/24 08:23:35;;;;;;;;;;;;;;;1.59;99.28;100442.58;105196;1275;97895;-69
2023/01/24 08:26:02;;;;;;;;;;;;;;;1.59;99.14;100445.83;105326;1254;97976;-70
2023/01/24 08:28:31;;;;;;;;;;;;;;;1.60;99.15;100445.37;105204;1266;98784;-70
2023/01/24 08:30:58;;;;;;;;;;;;;;;1.61;98.74;100447.83;105245;1266;107429;-69
2023/01/24 08:33:25;;;;;;;;;;;;;;;1.60;98.94;100450.11;105286;1257;97925;-70
2023/01/24 08:35:52;;;;;;;;;;;;;;;1.60;98.77;100451.39;105177;1257;99194;-69
2023/01/24 08:38:19;;;;;;;;;;;;;;;1.60;99.06;100450.52;105166;1267;97895;-71
2023/01/24 08:40:46;;;;;;;;;;;;;;;1.59;99.02;100455.86;105253;1254;97988;-70
2023/01/24 08:43:16;;;;;;;;;;;;;;;1.59;99.23;100455.85;105291;1264;108780;-71
2023/01/24 08:45:43;;;;;;;;;;;;;;;1.57;99.49;100459.55;105361;1266;97997;-72
2023/01/24 08:48:10;;;;;;;;;;;;;;;1.53;99.31;100463.30;105299;1257;99208;-70
2023/01/24 08:50:36;;;;;;;;;;;;;;;1.53;99.62;100463.73;105226;1266;98129;-68
2023/01/24 08:53:03;;;;;;;;;;;;;;;1.53;99.85;100463.91;105122;1266;97940;-68
2023/01/24 08:55:30;;;;;;;;;;;;;;;1.53;99.98;100461.52;105193;1257;98009;-69
2023/01/24 08:58:00;;;;;;;;;;;;;;;1.55;99.93;100464.80;105343;1256;97982;-68
2023/01/24 09:00:27;;;;;;;;;;;;;;;1.55;99.99;100464.05;105314;1258;112379;-68
2023/01/24 09:02:54;;;;;;;;;;;;;;;1.58;100.00;100467.58;105306;1257;98705;-68
2023/01/24 09:05:21;;;;;;;;;;;;;;;1.58;100.00;100468.83;105166;1257;99231;-68
2023/01/24 09:07:49;;;;;;;;;;;;;;;1.57;100.00;100467.29;105292;1254;98343;-71
2023/01/24 09:10:16;;;;;;;;;;;;;;;1.57;100.00;100471.85;105233;1267;98003;-69
2023/01/24 09:12:42;;;;;;;;;;;;;;;1.56;100.00;100476.69;105326;1264;99198;-70
2023/01/24 09:15:10;;;;;;;;;;;;;;;1.53;100.00;100478.15;105343;1266;97992;-69
2023/01/24 09:17:37;;;;;;;;;;;;;;;1.53;100.00;100480.02;105225;1264;99198;-69
2023/01/24 09:20:05;;;;;;;;;;;;;;;1.56;100.00;100482.67;105187;1267;97981;-69
2023/01/24 09:22:32;;;;;;;;;;;;;;;1.58;100.00;100478.73;105227;1257;99166;-69
2023/01/24 09:24:59;;;;;;;;;;;;;;;1.55;100.00;100478.02;105243;1258;97979;-69
2023/01/24 09:27:26;;;;;;;;;;;;;;;1.52;100.00;100480.27;105287;1266;99203;-69
2023/01/24 09:29:53;;;;;;;;;;;;;;;1.50;100.00;100477.23;105327;1264;97889;-69
2023/01/24 09:32:19;;;;;;;;;;;;;;;1.50;100.00;100480.30;105183;1258;97927;-69
2023/01/24 09:34:47;;;;;;;;;;;;;;;1.50;100.00;100482.29;105321;1258;97887;-69
2023/01/24 09:37:19;;;;;;;;;;;;;;;1.52;100.00;100480.63;105310;1266;97886;-69
2023/01/24 09:39:46;;;;;;;;;;;;;;;1.50;100.00;100473.44;105300;1257;108661;-69
2023/01/24 09:42:15;;;;;;;;;;;;;;;1.50;100.00;100471.54;105232;1254;97947;-69
2023/01/24 09:44:42;;;;;;;;;;;;;;;1.47;100.00;100466.17;105302;1254;97906;-69
2023/01/24 09:47:16;;;;;;;;;;;;;;;1.47;100.00;100466.99;105258;1257;97902;-69
2023/01/24 09:50:09;;;;;;;;;;;;;;;1.49;100.00;100465.30;105204;1257;99158;-69
2023/01/24 09:52:38;;;;;;;;;;;;;;;1.50;100.00;100461.02;105276;1256;108699;-69
2023/01/24 09:55:09;;;;;;;;;;;;;;;1.53;100.00;100464.67;105288;1258;99195;-69
2023/01/24 09:57:56;;;;;;;;;;;;;;;1.54;100.00;100459.77;105285;1258;98030;-69
2023/01/24 10:00:32;;;;;;;;;;;;;;;1.54;100.00;100459.98;105090;1265;112332;-69
2023/01/24 10:03:00;;;;;;;;;;;;;;;1.54;100.00;100458.60;105224;1254;100952;-71
2023/01/24 10:05:40;;;;;;;;;;;;;;;1.56;100.00;100455.98;105297;1256;108565;-70
2023/01/24 10:08:07;;;;;;;;;;;;;;;1.53;100.00;100455.68;105269;1256;97924;-70
2023/01/24 10:10:43;;;;;;;;;;;;;;;1.50;100.00;100455.15;105329;1256;97907;-70
2023/01/24 10:13:19;;;;;;;;;;;;;;;1.50;100.00;100455.64;105288;1257;111176;-70
2023/01/24 10:16:05;;;;;;;;;;;;;;;1.52;100.00;100459.52;105282;1268;99293;-70
2023/01/24 10:18:41;;;;;;;;;;;;;;;1.54;100.00;100460.59;105215;1264;108749;-70
2023/01/24 10:21:11;;;;;;;;;;;;;;;1.53;100.00;100460.89;105405;1254;97903;-70
2023/01/24 10:23:41;;;;;;;;;;;;;;;1.55;100.00;100460.48;105357;1257;97936;-70
2023/01/24 10:26:17;;;;;;;;;;;;;;;1.57;100.00;100463.05;105354;1257;112197;-70
2023/01/24 10:28:47;;;;;;;;;;;;;;;1.57;100.00;100459.23;105403;1257;99195;-70
2023/01/24 10:31:17;;;;;;;;;;;;;;;1.59;100.00;100456.84;105371;1258;108752;-70
2023/01/24 10:33:49;;;;;;;;;;;;;;;1.63;100.00;100460.88;105317;1257;97914;-69
2023/01/24 10:36:15;;;;;;;;;;;;;;;1.64;100.00;100460.95;105360;1256;97912;-70
2023/01/24 10:38:43;;;;;;;;;;;;;;;1.66;100.00;100457.99;105373;1256;97919;-70
2023/01/24 10:41:09;;;;;;;;;;;;;;;1.68;100.00;100458.99;105357;1264;98001;-70
2023/01/24 10:43:37;;;;;;;;;;;;;;;1.67;100.00;100455.51;105362;1267;97959;-70
2023/01/24 10:46:11;;;;;;;;;;;;;;;1.71;100.00;100449.09;105359;1258;97995;-70
2023/01/24 10:48:45;;;;;;;;;;;;;;;1.73;100.00;100446.59;105377;1254;98393;-70
2023/01/24 10:51:17;;;;;;;;;;;;;;;1.80;100.00;100450.21;105391;1256;112105;-71
2023/01/24 10:53:45;;;;;;;;;;;;;;;1.84;99.71;100443.38;105397;1267;99316;-71
2023/01/24 10:56:13;;;;;;;;;;;;;;;1.85;99.09;100443.91;105376;1254;97918;-70
2023/01/24 10:58:42;;;;;;;;;;;;;;;1.88;98.91;100442.29;105375;1273;98800;-70
2023/01/24 11:01:20;;;;;;;;;;;;;;;1.89;98.63;100441.61;105325;1256;99201;-70
2023/01/24 11:03:48;;;;;;;;;;;;;;;1.90;98.56;100436.75;105324;1254;110671;-70
2023/01/24 11:06:27;;;;;;;;;;;;;;;1.89;98.47;100438.05;105308;1254;97826;-70
2023/01/24 11:08:55;;;;;;;;;;;;;;;1.86;98.33;100438.92;105333;1255;108625;-70
2023/01/24 11:11:25;;;;;;;;;;;;;;;1.84;98.46;100434.11;105325;1257;99064;-70
2023/01/24 11:13:56;;;;;;;;;;;;;;;1.86;98.80;100431.77;105355;1254;98687;-70
2023/01/24 11:16:27;;;;;;;;;;;;;;;1.88;98.72;100424.61;105413;1256;110867;-70
2023/01/24 11:19:00;;;;;;;;;;;;;;;1.89;98.66;100424.27;105346;1264;98985;-70
2023/01/24 11:21:28;;;;;;;;;;;;;;;1.91;98.99;100421.98;105320;1256;108826;-70
2023/01/24 11:24:07;;;;;;;;;;;;;;;1.93;98.71;100421.56;105161;1257;97925;-70
2023/01/24 11:26:52;;;;;;;;;;;;;;;1.93;98.77;100419.90;105325;1254;97879;-69
2023/01/24 11:29:18;;;;;;;;;;;;;;;1.91;98.83;100419.10;105324;1257;110827;-72
2023/01/24 11:31:51;;;;;;;;;;;;;;;1.89;99.09;100419.77;105360;1264;97921;-70
2023/01/24 11:34:56;;;;;;;;;;;;;;;1.86;98.93;100414.88;105337;1257;108210;-70
2023/01/24 11:37:41;;;;;;;;;;;;;;;1.89;99.20;100415.83;104755;1273;98062;-68
2023/01/24 11:40:27;;;;;;;;;;;;;;;1.85;99.07;100414.30;104773;1264;99131;-68
2023/01/24 11:42:57;;;;;;;;;;;;;;;1.84;99.07;100414.52;104701;1264;111911;-68
2023/01/24 11:45:48;;;;;;;;;;;;;;;1.86;99.22;100412.05;104823;1273;99231;-67
2023/01/24 11:48:19;;;;;;;;;;;;;;;1.87;98.84;100411.09;104797;1264;108307;-68
2023/01/24 11:51:06;;;;;;;;;;;;;;;1.88;98.87;100401.48;104830;1279;98096;-69
2023/01/24 11:54:02;;;;;;;;;;;;;;;1.91;98.77;100401.27;104842;1260;98114;-68
2023/01/24 11:56:54;;;;;;;;;;;;;;;1.95;98.74;100400.26;104812;1266;111806;-68
2023/01/24 11:59:50;;;;;;;;;;;;;;;1.97;98.60;100397.01;104778;1271;99159;-68
2023/01/24 12:02:56;;;;;;;;;;;;;;;1.98;98.31;100391.89;104742;1261;108167;-68
2023/01/24 12:05:35;;;;;;;;;;;;;;;1.96;98.17;100394.59;104723;1260;98411;-68
2023/01/24 12:08:28;;;;;;;;;;;;;;;1.95;97.96;100392.59;104771;1254;98164;-68
2023/01/24 12:11:07;;;;;;;;;;;;;;;1.96;98.17;100393.42;105206;1254;111518;-67
2023/01/24 12:14:13;;;;;;;;;;;;;;;1.93;97.82;100395.77;105213;1264;98622;-67
2023/01/24 12:16:52;;;;;;;;;;;;;;;1.94;98.11;100394.39;105308;1256;109894;-67
2023/01/24 12:19:27;;;;;;;;;;;;;;;1.95;98.22;100391.89;105287;1267;97977;-67
2023/01/24 12:21:54;;;;;;;;;;;;;;;1.95;97.99;100387.83;105231;1255;97845;-67
2023/01/24 12:24:24;;;;;;;;;;;;;;;1.95;98.28;100390.19;105160;1254;99216;-67
2023/01/24 12:26:53;;;;;;;;;;;;;;;1.92;98.06;100388.91;105209;1270;99275;-67
2023/01/24 12:29:22;;;;;;;;;;;;;;;1.91;98.25;100388.66;105023;1254;109905;-67
2023/01/24 12:31:52;;;;;;;;;;;;;;;1.93;98.00;100386.37;105292;1257;98399;-66
2023/01/24 12:34:39;;;;;;;;;;;;;;;1.95;98.29;100391.73;105169;1257;99108;-67
2023/01/24 12:37:09;;;;;;;;;;;;;;;1.95;97.98;100392.06;105016;1260;112316;-66
2023/01/24 12:39:47;;;;;;;;;;;;;;;1.97;98.09;100394.92;105272;1254;100283;-66
2023/01/24 12:42:19;;;;;;;;;;;;;;;1.94;97.74;100395.98;105245;1257;109059;-66
2023/01/24 12:44:56;;;;;;;;;;;;;;;1.94;98.32;100396.38;105051;1256;97891;-66
2023/01/24 12:47:46;;;;;;;;;;;;;;;1.98;98.64;100397.96;105182;1257;99290;-68
2023/01/24 12:50:25;;;;;;;;;;;;;;;1.97;98.08;100399.26;105111;1257;112140;-70
2023/01/24 12:52:58;;;;;;;;;;;;;;;1.97;98.28;100405.73;105281;1264;100794;-68
2023/01/24 12:55:47;;;;;;;;;;;;;;;2.02;98.57;100403.44;105276;1258;108509;-65
2023/01/24 12:58:33;;;;;;;;;;;;;;;2.04;98.15;100404.94;105199;1274;98485;-65
2023/01/24 13:01:16;;;;;;;;;;;;;;;2.07;98.00;100410.23;105324;1271;97963;-65
2023/01/24 13:03:43;;;;;;;;;;;;;;;2.06;97.73;100408.08;105292;1257;113453;-66
2023/01/24 13:06:23;;;;;;;;;;;;;;;2.03;97.75;100408.34;105290;1256;99092;-65
2023/01/24 13:08:58;;;;;;;;;;;;;;;2.02;98.07;100407.52;105270;1252;108625;-65
2023/01/24 13:11:28;;;;;;;;;;;;;;;1.99;97.73;100409.69;105272;1254;97909;-65
2023/01/24 13:14:10;;;;;;;;;;;;;;;2.00;98.08;100408.73;105319;1266;97899;-66
2023/01/24 13:16:51;;;;;;;;;;;;;;;1.98;97.96;100405.36;105347;1257;112207;-66
2023/01/24 13:19:18;;;;;;;;;;;;;;;2.00;97.93;100405.86;105306;1254;99367;-67
2023/01/24 13:21:45;;;;;;;;;;;;;;;2.02;97.95;100403.07;105261;1264;99252;-66
2023/01/24 13:24:15;;;;;;;;;;;;;;;1.99;97.53;100401.91;105255;1267;97902;-66
2023/01/24 13:27:00;;;;;;;;;;;;;;;1.99;97.23;100402.91;105369;1253;99108;-66
2023/01/24 13:29:30;;;;;;;;;;;;;;;1.98;97.19;100407.77;105316;1258;111255;-67